Merced Regional Macready Field Merced US
ICAO: KMCE
IATA: MCE
Category: Medium
Scheduled Services: No

Elevation: 155 ft
TransAlt. 18000 ft.

Airport Communications:
NORCAL APP/DEP:120.95
ASOS:132.175
CTAF/UNICOM:122.7

KMCE Zoom In..

Runways:

(A) RW 12 length 5914 ft width 150 ft
---- / hdg 123

(B) RW 30 length 5914 ft width 150 ft
ILS 109.30 / hdg 303

Location; KMCE
Day. 15 / Time. 21.53 Zulu
* Altimeter: 29.86
* Temperature: 36° c. 96.8°f.
* Wind from: 330° Speed 10 kn with Gusts up to 16 kn.
Dewpoint: 14° c.
Visibility: 10 Statute Miles.
Clouds: Clear (automated report).

KMCE 152153Z AUTO 33010G16KT 10SM CLR 36/14 A2986 RMK AO2 SLP110 T03560139


Wind From 330°
Speed 10 kn.

 
 
jpsmedia.com for Web Design worldairports.se 2018   terms of use